createdAt,value
2017-08-26T00:00:49.013Z,12.70
2017-08-26T00:03:15.390Z,12.67
2017-08-26T00:05:41.825Z,14.17
2017-08-26T00:08:08.260Z,13.20
2017-08-26T00:10:34.900Z,13.03
2017-08-26T00:13:01.336Z,13.40
2017-08-26T00:15:27.863Z,13.20
2017-08-26T00:17:54.409Z,12.33
2017-08-26T00:20:20.843Z,13.03
2017-08-26T00:22:47.277Z,12.00
2017-08-26T00:25:13.753Z,12.17
2017-08-26T00:27:40.120Z,13.23
2017-08-26T00:30:06.583Z,12.40
2017-08-26T00:32:32.983Z,12.77
2017-08-26T00:34:59.572Z,13.60
2017-08-26T00:37:26.093Z,13.13
2017-08-26T00:39:52.527Z,13.03
2017-08-26T00:42:19.012Z,12.53
2017-08-26T00:44:45.500Z,13.00
2017-08-26T00:47:11.933Z,13.13
2017-08-26T00:49:38.459Z,12.73
2017-08-26T00:52:04.899Z,12.60
2017-08-26T00:54:31.446Z,13.50
2017-08-26T00:56:57.880Z,13.27
2017-08-26T00:59:24.313Z,13.80
2017-08-26T01:01:50.846Z,12.30
2017-08-26T01:04:17.238Z,13.40
2017-08-26T01:06:43.617Z,12.60
2017-08-26T01:09:10.096Z,13.60
2017-08-26T01:11:36.592Z,14.10
2017-08-26T01:14:02.980Z,12.30
2017-08-26T01:16:30.342Z,12.03
2017-08-26T01:18:56.817Z,12.90
2017-08-26T01:21:23.293Z,14.03
2017-08-26T01:23:49.689Z,12.90
2017-08-26T01:26:16.244Z,13.60
2017-08-26T01:28:42.737Z,12.87
2017-08-26T01:31:09.196Z,13.27
2017-08-26T01:33:35.632Z,12.60
2017-08-26T01:36:02.143Z,12.43
2017-08-26T01:38:28.604Z,11.90
2017-08-26T01:40:55.009Z,11.57
2017-08-26T01:43:21.469Z,11.73
2017-08-26T01:45:48.010Z,12.10
2017-08-26T01:48:14.445Z,12.10
2017-08-26T01:50:40.883Z,12.97
2017-08-26T01:53:07.316Z,12.77
2017-08-26T01:55:33.871Z,13.37
2017-08-26T01:58:00.388Z,13.30
2017-08-26T02:00:26.928Z,11.67
2017-08-26T02:02:53.361Z,11.77
2017-08-26T02:05:19.899Z,11.90
2017-08-26T02:07:46.333Z,11.50
2017-08-26T02:10:12.770Z,11.60
2017-08-26T02:12:39.148Z,11.73
2017-08-26T02:15:05.638Z,11.73
2017-08-26T02:17:32.075Z,12.00
2017-08-26T02:19:58.508Z,11.20
2017-08-26T02:22:24.943Z,10.80
2017-08-26T02:24:51.482Z,11.40
2017-08-26T02:27:17.915Z,12.50
2017-08-26T02:29:44.350Z,12.50
2017-08-26T02:32:10.784Z,11.33
2017-08-26T02:34:37.299Z,12.97
2017-08-26T02:37:03.759Z,12.27
2017-08-26T02:39:30.192Z,12.83
2017-08-26T02:41:56.627Z,12.80
2017-08-26T02:44:23.010Z,12.40
2017-08-26T02:46:49.497Z,12.80
2017-08-26T02:49:15.931Z,12.50
2017-08-26T02:51:42.366Z,12.20
2017-08-26T02:54:08.803Z,13.20
2017-08-26T02:56:35.236Z,13.10
2017-08-26T02:59:01.670Z,13.23
2017-08-26T03:01:28.108Z,13.27
2017-08-26T03:03:54.541Z,12.90
2017-08-26T03:06:21.036Z,12.20
2017-08-26T03:08:47.510Z,11.90
2017-08-26T03:11:14.602Z,11.63
2017-08-26T03:13:41.053Z,12.10
2017-08-26T03:16:07.431Z,13.80
2017-08-26T03:18:33.869Z,12.07
2017-08-26T03:21:00.302Z,12.93
2017-08-26T03:23:26.937Z,13.17
2017-08-26T03:25:53.429Z,12.57
2017-08-26T03:28:19.863Z,11.70
2017-08-26T03:30:46.352Z,12.97
2017-08-26T03:33:12.785Z,12.90
2017-08-26T03:35:39.321Z,14.60
2017-08-26T03:38:05.757Z,12.33
2017-08-26T03:40:32.191Z,12.30
2017-08-26T03:42:58.625Z,11.93
2017-08-26T03:45:25.112Z,12.43
2017-08-26T03:47:51.587Z,13.40
2017-08-26T03:50:18.032Z,12.20
2017-08-26T03:52:44.467Z,13.97
2017-08-26T03:55:11.005Z,14.07
2017-08-26T03:57:37.440Z,14.03
2017-08-26T04:00:03.837Z,13.23
2017-08-26T04:02:30.309Z,13.40
2017-08-26T04:04:56.822Z,11.93
2017-08-26T04:07:23.281Z,12.20
2017-08-26T04:09:49.716Z,12.17
2017-08-26T04:12:16.119Z,11.87
2017-08-26T04:14:42.629Z,11.70
2017-08-26T04:17:09.076Z,12.87
2017-08-26T04:19:35.559Z,12.97
2017-08-26T04:22:01.993Z,14.23
2017-08-26T04:24:28.501Z,13.00
2017-08-26T04:26:54.966Z,12.40
2017-08-26T04:29:21.407Z,12.30
2017-08-26T04:31:47.836Z,13.30
2017-08-26T04:34:14.272Z,12.33
2017-08-26T04:36:40.689Z,13.40
2017-08-26T04:39:07.140Z,13.07
2017-08-26T04:41:33.574Z,13.67
2017-08-26T04:44:00.012Z,11.50
2017-08-26T04:46:26.495Z,13.10
2017-08-26T04:48:52.983Z,11.63
2017-08-26T04:51:20.118Z,16.87
2017-08-26T04:53:46.568Z,13.90
2017-08-26T04:56:13.006Z,12.27
2017-08-26T04:58:39.438Z,12.17
2017-08-26T05:01:05.874Z,11.93
2017-08-26T05:03:32.308Z,12.03
2017-08-26T05:05:59.413Z,12.60
2017-08-26T05:08:26.000Z,12.00
2017-08-26T05:10:52.384Z,12.00
2017-08-26T05:13:18.868Z,11.80
2017-08-26T05:15:45.405Z,13.37
2017-08-26T05:18:11.876Z,13.20
2017-08-26T05:20:38.274Z,12.97
2017-08-26T05:23:04.660Z,12.57
2017-08-26T05:25:31.138Z,13.70
2017-08-26T05:27:57.581Z,13.00
2017-08-26T05:30:24.832Z,13.47
2017-08-26T05:32:51.268Z,14.13
2017-08-26T05:35:17.759Z,13.67
2017-08-26T05:37:44.238Z,12.67
2017-08-26T05:40:10.674Z,13.00
2017-08-26T05:42:37.060Z,14.13
2017-08-26T05:45:03.544Z,13.57
2017-08-26T05:47:29.978Z,13.73
2017-08-26T05:49:56.415Z,15.40
2017-08-26T05:52:22.849Z,16.30
2017-08-26T05:54:49.387Z,21.83
2017-08-26T05:57:15.747Z,24.50
2017-08-26T05:59:42.120Z,20.00
2017-08-26T06:02:08.577Z,21.97
2017-08-26T06:04:35.099Z,23.23
2017-08-26T06:07:01.563Z,28.37
2017-08-26T06:09:28.003Z,30.53
2017-08-26T06:11:54.792Z,27.87
2017-08-26T06:14:21.691Z,22.47
2017-08-26T06:16:48.122Z,18.80
2017-08-26T06:19:14.583Z,15.10
2017-08-26T06:21:41.033Z,14.10
2017-08-26T06:24:08.141Z,13.63
2017-08-26T06:26:34.684Z,13.77
2017-08-26T06:29:01.064Z,14.07
2017-08-26T06:31:27.445Z,16.40
2017-08-26T06:33:54.291Z,18.60
2017-08-26T06:36:20.940Z,15.37
2017-08-26T06:38:47.675Z,13.17
2017-08-26T06:41:14.208Z,14.10
2017-08-26T06:43:41.160Z,12.90
2017-08-26T06:46:07.693Z,13.00
2017-08-26T06:48:34.127Z,12.10
2017-08-26T06:51:00.666Z,12.70
2017-08-26T06:53:27.696Z,16.40
2017-08-26T06:55:54.252Z,12.50
2017-08-26T06:58:20.687Z,13.00
2017-08-26T07:00:47.207Z,12.80
2017-08-26T07:03:13.761Z,12.90
2017-08-26T07:05:40.671Z,12.47
2017-08-26T07:08:07.130Z,13.47
2017-08-26T07:10:33.578Z,13.60
2017-08-26T07:13:00.219Z,16.37
2017-08-26T07:15:26.751Z,15.10
2017-08-26T07:17:53.354Z,14.53
2017-08-26T07:20:19.938Z,13.63
2017-08-26T07:22:46.367Z,14.27
2017-08-26T07:25:12.905Z,15.10
2017-08-26T07:27:40.280Z,15.77
2017-08-26T07:30:06.695Z,15.40
2017-08-26T07:32:33.236Z,14.60
2017-08-26T07:35:00.240Z,14.13
2017-08-26T07:37:26.671Z,13.80
2017-08-26T07:39:53.136Z,12.73
2017-08-26T07:42:19.954Z,13.10
2017-08-26T07:44:46.421Z,12.97
2017-08-26T07:47:12.867Z,13.60
2017-08-26T07:49:39.301Z,12.90
2017-08-26T07:52:05.946Z,13.90
2017-08-26T07:54:32.478Z,13.20
2017-08-26T07:56:58.915Z,12.07
2017-08-26T07:59:25.553Z,11.20
2017-08-26T08:01:52.090Z,11.20
2017-08-26T08:04:18.626Z,11.50
2017-08-26T08:06:45.471Z,11.23
2017-08-26T08:09:12.009Z,9.77
2017-08-26T08:11:38.545Z,10.53
2017-08-26T08:14:05.186Z,10.30
2017-08-26T08:16:31.724Z,9.70
2017-08-26T08:18:58.163Z,9.40
2017-08-26T08:21:24.899Z,9.50
2017-08-26T08:23:51.338Z,9.53
2017-08-26T08:26:17.871Z,9.90
2017-08-26T08:28:44.568Z,10.10
2017-08-26T08:31:11.001Z,9.80
2017-08-26T08:33:37.484Z,10.40
2017-08-26T08:36:04.326Z,9.53
2017-08-26T08:38:30.766Z,9.60
2017-08-26T08:40:57.610Z,10.00
2017-08-26T08:43:24.454Z,9.20
2017-08-26T08:45:50.993Z,9.43
2017-08-26T08:48:17.425Z,9.50
2017-08-26T08:50:44.174Z,9.83
2017-08-26T08:53:10.807Z,9.00
2017-08-26T08:55:37.344Z,8.60
2017-08-26T08:58:04.085Z,9.43
2017-08-26T09:00:30.520Z,8.60
2017-08-26T09:02:56.959Z,8.50
2017-08-26T09:05:23.800Z,9.20
2017-08-26T09:07:50.441Z,9.20
2017-08-26T09:10:16.980Z,8.83
2017-08-26T09:12:43.679Z,9.47
2017-08-26T09:15:10.152Z,9.83
2017-08-26T09:17:36.591Z,9.00
2017-08-26T09:20:03.536Z,8.40
2017-08-26T09:22:30.115Z,9.93
2017-08-26T09:24:56.608Z,9.80
2017-08-26T09:27:23.258Z,8.80
2017-08-26T09:29:49.787Z,9.13
2017-08-26T09:32:16.654Z,9.77
2017-08-26T09:34:43.414Z,9.10
2017-08-26T09:37:09.900Z,9.00
2017-08-26T09:39:36.341Z,9.20
2017-08-26T09:42:02.991Z,8.70
2017-08-26T09:44:29.628Z,9.10
2017-08-26T09:46:56.130Z,8.60
2017-08-26T09:49:23.212Z,8.30
2017-08-26T09:51:49.647Z,10.90
2017-08-26T09:54:16.081Z,9.60
2017-08-26T09:56:42.708Z,8.60
2017-08-26T09:59:09.157Z,8.00
2017-08-26T10:01:35.677Z,8.70
2017-08-26T10:04:02.538Z,8.57
2017-08-26T10:06:29.023Z,8.60
2017-08-26T10:08:55.518Z,9.40
2017-08-26T10:11:22.456Z,8.43
2017-08-26T10:13:48.950Z,8.70
2017-08-26T10:16:15.484Z,9.03
2017-08-26T10:18:42.071Z,9.00
2017-08-26T10:21:08.507Z,8.30
2017-08-26T10:23:34.940Z,8.87
2017-08-26T10:26:01.886Z,8.43
2017-08-26T10:28:28.328Z,8.63
2017-08-26T10:30:54.755Z,9.20
2017-08-26T10:33:21.499Z,9.23
2017-08-26T10:35:47.994Z,9.53
2017-08-26T10:38:14.468Z,10.00
2017-08-26T10:40:41.541Z,9.00
2017-08-26T10:43:08.056Z,7.50
2017-08-26T10:45:34.594Z,8.50
2017-08-26T10:48:01.319Z,8.40
2017-08-26T10:50:27.770Z,8.80
2017-08-26T10:52:54.205Z,8.10
2017-08-26T10:55:20.699Z,8.30
2017-08-26T10:57:47.484Z,9.00
2017-08-26T11:00:14.124Z,8.30
2017-08-26T11:02:40.561Z,8.13
2017-08-26T11:05:07.664Z,9.03
2017-08-26T11:07:34.145Z,8.30
2017-08-26T11:10:00.680Z,8.20
2017-08-26T11:12:27.427Z,8.40
2017-08-26T11:14:53.857Z,7.73
2017-08-26T11:17:20.295Z,8.00
2017-08-26T11:19:46.680Z,7.50
2017-08-26T11:22:13.366Z,6.90
2017-08-26T11:24:39.907Z,8.70
2017-08-26T11:27:06.411Z,6.93
2017-08-26T11:29:33.289Z,7.67
2017-08-26T11:31:59.726Z,7.40
2017-08-26T11:34:26.260Z,7.23
2017-08-26T11:36:52.951Z,6.87
2017-08-26T11:39:19.439Z,6.80
2017-08-26T11:41:45.875Z,6.10
2017-08-26T11:44:12.675Z,7.00
2017-08-26T11:46:39.152Z,6.43
2017-08-26T11:49:05.586Z,5.90
2017-08-26T11:51:32.589Z,5.73
2017-08-26T11:53:59.027Z,5.63
2017-08-26T11:56:25.819Z,5.40
2017-08-26T11:58:52.761Z,5.00
2017-08-26T12:01:19.299Z,5.17
2017-08-26T12:03:45.732Z,4.80
2017-08-26T12:06:12.471Z,4.77
2017-08-26T12:08:39.014Z,5.17
2017-08-26T12:11:05.552Z,5.20
2017-08-26T12:13:32.188Z,5.30
2017-08-26T12:15:58.726Z,4.40
2017-08-26T12:18:25.571Z,4.67
2017-08-26T12:20:52.210Z,4.40
2017-08-26T12:23:18.707Z,4.50
2017-08-26T12:25:45.284Z,4.20
2017-08-26T12:28:12.563Z,4.43
2017-08-26T12:30:39.181Z,4.17
2017-08-26T12:33:05.615Z,4.03
2017-08-26T12:35:32.273Z,4.63
2017-08-26T12:37:58.790Z,3.95
2017-08-26T12:40:25.326Z,4.10
2017-08-26T12:42:52.173Z,4.10
2017-08-26T12:45:18.607Z,3.40
2017-08-26T12:47:45.575Z,3.72
2017-08-26T12:50:12.578Z,3.67
2017-08-26T12:52:38.990Z,3.70
2017-08-26T12:55:05.468Z,3.70
2017-08-26T12:57:31.866Z,3.50
2017-08-26T12:59:58.326Z,3.67
2017-08-26T13:02:24.816Z,3.15
2017-08-26T13:04:51.421Z,3.10
2017-08-26T13:07:17.955Z,3.20
2017-08-26T13:09:44.391Z,3.08
2017-08-26T13:12:10.881Z,3.40
2017-08-26T13:14:37.382Z,3.28
2017-08-26T13:17:03.896Z,3.10
2017-08-26T13:19:30.335Z,4.03
2017-08-26T13:21:56.720Z,3.78
2017-08-26T13:24:23.186Z,3.45
2017-08-26T13:26:49.579Z,3.42
2017-08-26T13:29:15.972Z,3.30
2017-08-26T13:31:42.459Z,3.37
2017-08-26T13:34:09.661Z,3.10
2017-08-26T13:36:36.095Z,3.25
2017-08-26T13:39:02.531Z,3.50
2017-08-26T13:41:28.963Z,3.47
2017-08-26T13:43:55.400Z,3.50
2017-08-26T13:46:21.939Z,3.30
2017-08-26T13:48:48.392Z,3.70
2017-08-26T13:51:15.627Z,3.80
2017-08-26T13:53:42.060Z,3.53
2017-08-26T13:56:08.617Z,3.90
2017-08-26T13:58:34.988Z,3.90
2017-08-26T14:01:01.463Z,4.83
2017-08-26T14:03:27.902Z,4.13
2017-08-26T14:05:54.444Z,5.43
2017-08-26T14:08:20.878Z,5.63
2017-08-26T14:10:47.277Z,5.93
2017-08-26T14:13:13.726Z,5.60
2017-08-26T14:15:40.284Z,5.90
2017-08-26T14:18:06.720Z,6.13
2017-08-26T14:20:33.103Z,6.83
2017-08-26T14:22:59.588Z,6.57
2017-08-26T14:25:26.742Z,6.80
2017-08-26T14:27:53.174Z,6.50
2017-08-26T14:30:19.609Z,6.60
2017-08-26T14:32:46.146Z,6.83
2017-08-26T14:35:13.831Z,7.70
2017-08-26T14:37:40.348Z,7.10
2017-08-26T14:40:06.784Z,7.63
2017-08-26T14:42:33.217Z,7.07
2017-08-26T14:44:59.651Z,7.60
2017-08-26T14:47:26.213Z,7.17
2017-08-26T14:49:52.701Z,7.40
2017-08-26T14:52:19.164Z,7.40
2017-08-26T14:54:45.683Z,7.70
2017-08-26T14:57:12.082Z,7.30
2017-08-26T14:59:39.489Z,7.20
2017-08-26T15:02:05.924Z,7.53
2017-08-26T15:04:32.409Z,8.17
2017-08-26T15:06:58.879Z,7.67
2017-08-26T15:09:25.332Z,7.60
2017-08-26T15:11:51.684Z,8.37
2017-08-26T15:14:18.200Z,7.53
2017-08-26T15:16:45.463Z,7.57
2017-08-26T15:19:11.889Z,7.43
2017-08-26T15:21:38.449Z,7.13
2017-08-26T15:24:04.965Z,7.60
2017-08-26T15:26:31.502Z,7.93
2017-08-26T15:28:57.934Z,7.67
2017-08-26T15:31:24.371Z,7.97
2017-08-26T15:33:51.523Z,8.23
2017-08-26T15:36:17.994Z,7.80
2017-08-26T15:38:44.447Z,7.90
2017-08-26T15:41:10.996Z,8.20
2017-08-26T15:43:37.468Z,7.93
2017-08-26T15:46:04.008Z,7.57
2017-08-26T15:48:30.437Z,7.43
2017-08-26T15:50:57.593Z,7.93
2017-08-26T15:53:23.980Z,7.73
2017-08-26T15:55:50.462Z,7.53
2017-08-26T15:58:16.853Z,7.90
2017-08-26T16:00:43.293Z,8.37
2017-08-26T16:03:09.717Z,8.00
2017-08-26T16:05:36.140Z,7.23
2017-08-26T16:08:03.248Z,7.50
2017-08-26T16:10:29.686Z,7.80
2017-08-26T16:12:56.119Z,7.83
2017-08-26T16:15:22.657Z,7.97
2017-08-26T16:17:49.049Z,8.23
2017-08-26T16:20:15.629Z,7.40
2017-08-26T16:22:42.001Z,7.50
2017-08-26T16:25:08.479Z,7.50
2017-08-26T16:27:34.925Z,8.37
2017-08-26T16:30:01.370Z,7.37
2017-08-26T16:32:27.761Z,8.27
2017-08-26T16:34:54.230Z,8.67
2017-08-26T16:37:20.677Z,8.70
2017-08-26T16:39:47.059Z,8.60
2017-08-26T16:42:14.263Z,7.80
2017-08-26T16:44:40.798Z,8.60
2017-08-26T16:47:07.231Z,10.80
2017-08-26T16:49:33.620Z,8.90
2017-08-26T16:52:00.103Z,8.57
2017-08-26T16:54:26.476Z,8.20
2017-08-26T16:56:52.973Z,8.33
2017-08-26T16:59:19.972Z,8.90
2017-08-26T17:01:46.453Z,8.40
2017-08-26T17:04:12.893Z,8.50
2017-08-26T17:06:39.326Z,8.67
2017-08-26T17:09:05.762Z,8.50
2017-08-26T17:11:32.195Z,8.33
2017-08-26T17:13:58.650Z,8.90
2017-08-26T17:16:25.679Z,9.53
2017-08-26T17:18:52.116Z,9.90
2017-08-26T17:21:18.509Z,9.47
2017-08-26T17:23:44.937Z,10.30
2017-08-26T17:26:11.420Z,8.90
2017-08-26T17:28:37.855Z,9.20
2017-08-26T17:31:04.290Z,10.00
2017-08-26T17:33:31.533Z,9.30
2017-08-26T17:35:58.080Z,10.70
2017-08-26T17:38:24.517Z,9.80
2017-08-26T17:40:50.948Z,10.10
2017-08-26T17:43:17.386Z,10.23
2017-08-26T17:45:43.923Z,10.23
2017-08-26T17:48:10.462Z,9.87
2017-08-26T17:50:37.511Z,10.20
2017-08-26T17:53:03.896Z,9.93
2017-08-26T17:55:30.424Z,10.30
2017-08-26T17:57:56.916Z,8.97
2017-08-26T18:00:23.351Z,9.83
2017-08-26T18:02:49.726Z,10.47
2017-08-26T18:05:16.219Z,11.23
2017-08-26T18:07:43.372Z,11.80
2017-08-26T18:10:09.906Z,13.60
2017-08-26T18:12:36.345Z,13.30
2017-08-26T18:15:02.884Z,12.00
2017-08-26T18:17:29.317Z,12.90
2017-08-26T18:19:55.752Z,13.13
2017-08-26T18:22:22.207Z,12.87
2017-08-26T18:24:49.441Z,12.67
2017-08-26T18:27:15.878Z,13.60
2017-08-26T18:29:42.414Z,12.93
2017-08-26T18:32:08.848Z,12.30
2017-08-26T18:34:35.402Z,11.67
2017-08-26T18:37:01.922Z,12.87
2017-08-26T18:39:28.420Z,12.23
2017-08-26T18:41:55.613Z,11.40
2017-08-26T18:44:22.000Z,12.43
2017-08-26T18:46:48.483Z,11.07
2017-08-26T18:49:14.937Z,11.07
2017-08-26T18:51:41.454Z,10.40
2017-08-26T18:54:07.888Z,11.37
2017-08-26T18:56:34.321Z,11.40
2017-08-26T18:59:01.476Z,10.57
2017-08-26T19:01:27.853Z,9.90
2017-08-26T19:03:54.345Z,10.63
2017-08-26T19:06:20.839Z,11.20
2017-08-26T19:08:47.316Z,11.07
2017-08-26T19:11:13.759Z,11.00
2017-08-26T19:13:40.190Z,11.10
2017-08-26T19:16:07.438Z,10.53
2017-08-26T19:18:33.876Z,11.00
2017-08-26T19:21:00.312Z,10.53
2017-08-26T19:23:26.746Z,10.67
2017-08-26T19:25:53.282Z,11.70
2017-08-26T19:28:19.721Z,12.27
2017-08-26T19:30:46.149Z,12.00
2017-08-26T19:33:12.690Z,11.13
2017-08-26T19:35:39.124Z,11.07
2017-08-26T19:38:05.605Z,11.40
2017-08-26T19:40:32.097Z,11.70
2017-08-26T19:42:58.482Z,11.50
2017-08-26T19:45:24.963Z,10.23
2017-08-26T19:47:51.404Z,11.20
2017-08-26T19:50:18.733Z,11.73
2017-08-26T19:52:45.180Z,11.70
2017-08-26T19:55:11.628Z,12.50
2017-08-26T19:57:38.069Z,10.87
2017-08-26T20:00:04.500Z,11.70
2017-08-26T20:02:30.935Z,10.90
2017-08-26T20:04:57.472Z,10.43
2017-08-26T20:07:24.624Z,11.10
2017-08-26T20:09:51.057Z,10.93
2017-08-26T20:12:17.492Z,10.77
2017-08-26T20:14:44.064Z,10.50
2017-08-26T20:17:10.524Z,11.40
2017-08-26T20:19:37.003Z,11.00
2017-08-26T20:22:03.436Z,10.80
2017-08-26T20:24:30.690Z,11.43
2017-08-26T20:26:57.077Z,10.90
2017-08-26T20:29:23.517Z,11.40
2017-08-26T20:31:49.952Z,11.37
2017-08-26T20:34:16.407Z,10.90
2017-08-26T20:36:42.822Z,12.57
2017-08-26T20:39:09.296Z,11.90
2017-08-26T20:41:36.334Z,11.63
2017-08-26T20:44:02.734Z,12.00
2017-08-26T20:46:29.238Z,11.20
2017-08-26T20:48:55.756Z,12.63
2017-08-26T20:51:22.191Z,11.97
2017-08-26T20:53:48.626Z,11.30
2017-08-26T20:56:15.185Z,12.60
2017-08-26T20:58:42.210Z,12.03
2017-08-26T21:01:08.649Z,12.47
2017-08-26T21:03:35.044Z,10.63
2017-08-26T21:06:01.514Z,10.83
2017-08-26T21:08:27.951Z,11.57
2017-08-26T21:10:54.443Z,11.80
2017-08-26T21:13:20.888Z,11.43
2017-08-26T21:15:48.174Z,11.30
2017-08-26T21:18:14.613Z,11.73
2017-08-26T21:20:41.000Z,11.60
2017-08-26T21:23:07.461Z,10.83
2017-08-26T21:25:34.123Z,11.20
2017-08-26T21:28:00.560Z,11.23
2017-08-26T21:30:26.993Z,10.97
2017-08-26T21:32:54.248Z,10.90
2017-08-26T21:35:20.775Z,11.90
2017-08-26T21:37:47.173Z,11.60
2017-08-26T21:40:13.653Z,11.97
2017-08-26T21:42:40.089Z,11.27
2017-08-26T21:45:06.624Z,12.30
2017-08-26T21:47:33.065Z,12.00
2017-08-26T21:50:00.174Z,11.20
2017-08-26T21:52:26.647Z,11.13
2017-08-26T21:54:53.185Z,10.60
2017-08-26T21:57:19.619Z,12.93
2017-08-26T21:59:46.053Z,11.60
2017-08-26T22:02:12.442Z,12.63
2017-08-26T22:04:38.926Z,11.70
2017-08-26T22:07:06.080Z,11.90
2017-08-26T22:09:32.512Z,12.43
2017-08-26T22:11:58.945Z,12.20
2017-08-26T22:14:25.331Z,11.40
2017-08-26T22:16:51.679Z,11.67
2017-08-26T22:19:18.144Z,12.27
2017-08-26T22:21:44.582Z,11.93
2017-08-26T22:24:11.755Z,11.83
2017-08-26T22:26:38.169Z,12.17
2017-08-26T22:29:04.563Z,11.90
2017-08-26T22:31:31.012Z,13.10
2017-08-26T22:33:57.473Z,12.13
2017-08-26T22:36:24.052Z,11.43
2017-08-26T22:38:50.656Z,12.07
2017-08-26T22:41:17.904Z,12.63
2017-08-26T22:43:44.342Z,12.30
2017-08-26T22:46:10.877Z,12.40
2017-08-26T22:48:37.311Z,12.53
2017-08-26T22:51:03.747Z,11.90
2017-08-26T22:53:30.184Z,12.20
2017-08-26T22:55:56.672Z,11.37
2017-08-26T22:58:23.667Z,11.87
2017-08-26T23:00:50.104Z,12.23
2017-08-26T23:03:16.512Z,12.30
2017-08-26T23:05:43.028Z,11.50
2017-08-26T23:08:09.510Z,11.80
2017-08-26T23:10:35.942Z,12.30
2017-08-26T23:13:02.480Z,11.00
2017-08-26T23:15:29.525Z,11.17
2017-08-26T23:17:55.964Z,11.10
2017-08-26T23:20:22.399Z,11.37
2017-08-26T23:22:48.784Z,12.37
2017-08-26T23:25:15.293Z,11.90
2017-08-26T23:27:41.788Z,12.50
2017-08-26T23:30:08.242Z,12.30
2017-08-26T23:32:35.393Z,11.90
2017-08-26T23:35:01.932Z,11.77
2017-08-26T23:37:28.467Z,12.10
2017-08-26T23:39:54.877Z,11.70
2017-08-26T23:42:21.297Z,12.20
2017-08-26T23:44:47.772Z,12.77
2017-08-26T23:47:14.208Z,11.90
2017-08-26T23:49:41.358Z,11.80
2017-08-26T23:52:07.790Z,12.60
2017-08-26T23:54:34.277Z,12.70
2017-08-26T23:57:00.766Z,12.20
2017-08-26T23:59:27.172Z,12.70
